CheckWX is a tool to help pilots better visualize weather data.  It is not intended as a substitute for an official pre-flight weather briefing.

08:26:12 UTC

KDMN TAF
Deming Municipal Airport
Deming, New Mexico, USA
KDMN 220532Z 2206/2306 22008KT P6SM SCT035 BKN080 FM221200 17015G25KT P6SM VCSH BKN025 OVC040 TEMPO 2216/2220 -SHRA BKN015 FM222000 25022G32KT P6SM VCSH SCT015 BKN030 TEMPO 2220/2224 5SM -SHRASN BKN010 FM230300 26018G25KT P6SM OVC050

Feb-22@
06:00 UTC

Feb-22 @ 06:00 UTC

Feb-22@
12:00 UTC

Feb-22 @ 12:00 UTC

KDMN 220532Z 2206/2306 22008KT P6SM SCT035 BKN080
Wind
  • 220° at 8 KTS
Cloud Levels
  • Scattered at 3,500' AGL
  • Broken at 8,000' AGL

Feb-22@
12:00 UTC

Feb-22 @ 12:00 UTC

Feb-22@
20:00 UTC

Feb-22 @ 20:00 UTC

FM221200 17015G25KT P6SM VCSH BKN025 OVC040

From

FromStandard forecast or significant change

Wind
  • 170° at 15 KTS
  • {Gusting to 25 KTS
Cloud Levels
  • Broken at 2,500' AGL
  • Overcast at 4,000' AGL

Feb-22@
16:00 UTC

Feb-22 @ 16:00 UTC

Feb-22@
20:00 UTC

Feb-22 @ 20:00 UTC

TEMPO 2216/2220 -SHRA BKN015

Temporary

TemporaryChanges expected for less than half the time period

Conditions
Light Rain
Cloud Levels
  • Broken at 1,500' AGL

Feb-22@
20:00 UTC

Feb-22 @ 20:00 UTC

Feb-23@
00:00 UTC

Feb-23 @ 00:00 UTC

TEMPO 2220/2224 5SM -SHRASN BKN010

Temporary

TemporaryChanges expected for less than half the time period

Conditions
Light Rain, Light Snow
Cloud Levels
  • Broken at 1,000' AGL

Feb-22@
20:00 UTC

Feb-22 @ 20:00 UTC

Feb-23@
03:00 UTC

Feb-23 @ 03:00 UTC

FM222000 25022G32KT P6SM VCSH SCT015 BKN030

From

FromStandard forecast or significant change

Wind
  • 250° at 22 KTS
  • {Gusting to 32 KTS
Cloud Levels
  • Scattered at 1,500' AGL
  • Broken at 3,000' AGL

Feb-23@
03:00 UTC

Feb-23 @ 03:00 UTC

Feb-23@
06:00 UTC

Feb-23 @ 06:00 UTC

FM230300 26018G25KT P6SM OVC050

From

FromStandard forecast or significant change

Wind
  • 260° at 18 KTS
  • {Gusting to 25 KTS
Cloud Levels
  • Overcast at 5,000' AGL